aviador You're here:

EHVL Decoded Metar

VLIELAND ISLAND in NETHERLANDS
Report Time2018-01-17 01:07:00
UTC Time2018-01-17 01:23:09
Flight Rules vfr VFR
Wind290° at 28 kt
W.Rank290° ranks 12
Current wind is above 290° avg. (14.9)
Visibility9999 m
Phenomena:N/A
Clouds:Few CB 015 Hf
Scattered 028 Hf
Broken 032 Hf
Expected CloudBase > 1,200 ft AGL from Temp-Dew spread
Ceiling3,200 ft
Temp03°C (ISA -12)
Dew Point00°C (81% RH)
AAT-9.1°C
QNH0987 hPa
Density Alt-456 ft
Elevation16 ft
Report Wrong Elevation
Raw Report
EHVL 170107Z AUTO 29028KT 9999 FEW015CB SCT028 BKN032 03/00 Q0987
BLU=

Extra information for EHVL:More info

Metar Taf Metar & Taf Last 4 Metars F.Rules Stats Wind Profile Meteogram Temp Stats Airport Information Weather charts Add Link Nearby VenuesMetar ALERT Operation Metar Decoded Social comments